CYZR

Chris Hadfield Airport

ICAO Code CYZR
IATA Code YZR
Name Chris Hadfield Airport
Location Sarnia, Ontario, CA
Elevation 594 Feet / 181.1 Meters
Latitude 42.99940109
Longitude -82.30889893
METAR CYZR 080600Z AUTO 36017G22KT 9SM BKN008 OVC012 04/03 A2992 RMK SLP136
Extra information Display Charts and CFS
Display NOTAMS
Runway Length Width Surface Elevation
05 2989 ft 75 ft ASP 591 ft
14 5100 ft 100 ft ASP 590 ft
23 2989 ft 75 ft ASP 590 ft
32 5100 ft 100 ft ASP 594 ft